createdAt,value
2022-09-22T00:01:10.395Z,94.40
2022-09-22T00:03:40.288Z,94.40
2022-09-22T00:06:10.161Z,94.40
2022-09-22T00:08:40.388Z,94.40
2022-09-22T00:11:13.724Z,94.40
2022-09-22T00:13:43.512Z,94.40
2022-09-22T00:16:13.574Z,94.70
2022-09-22T00:18:41.506Z,94.50
2022-09-22T00:21:12.216Z,94.40
2022-09-22T00:23:41.143Z,94.50
2022-09-22T00:26:10.839Z,94.50
2022-09-22T00:28:39.039Z,94.50
2022-09-22T00:31:07.740Z,94.50
2022-09-22T00:33:37.935Z,94.50
2022-09-22T00:36:06.140Z,94.50
2022-09-22T00:38:34.291Z,94.50
2022-09-22T00:41:02.656Z,94.50
2022-09-22T00:43:35.156Z,94.50
2022-09-22T00:46:08.233Z,94.50
2022-09-22T00:48:44.320Z,94.50
2022-09-22T00:51:14.496Z,94.60
2022-09-22T00:53:42.978Z,94.60
2022-09-22T00:56:14.593Z,94.60
2022-09-22T00:58:46.157Z,94.60
2022-09-22T01:01:15.183Z,94.60
2022-09-22T01:03:45.049Z,94.60
2022-09-22T01:06:17.191Z,94.60
2022-09-22T01:08:46.035Z,94.60
2022-09-22T01:11:15.599Z,94.70
2022-09-22T01:13:51.567Z,94.70
2022-09-22T01:16:35.906Z,94.70
2022-09-22T01:19:37.803Z,94.70
2022-09-22T01:22:16.889Z,94.70
2022-09-22T01:24:56.275Z,94.70
2022-09-22T01:28:02.405Z,94.70
2022-09-22T01:30:37.130Z,94.70
2022-09-22T01:33:25.592Z,94.70
2022-09-22T01:36:03.817Z,94.70
2022-09-22T01:38:37.865Z,94.70
2022-09-22T01:41:09.606Z,94.70
2022-09-22T01:43:42.764Z,94.80
2022-09-22T01:46:17.270Z,94.80
2022-09-22T01:52:46.165Z,94.80
2022-09-22T01:55:22.080Z,94.70
2022-09-22T01:57:54.444Z,94.70
2022-09-22T02:00:23.028Z,94.70
2022-09-22T02:02:55.290Z,94.70
2022-09-22T02:05:29.210Z,94.80
2022-09-22T02:07:59.740Z,94.80
2022-09-22T02:10:37.668Z,94.80
2022-09-22T02:13:05.498Z,94.80
2022-09-22T02:15:51.113Z,94.80
2022-09-22T02:18:23.837Z,94.80
2022-09-22T02:20:52.670Z,94.80
2022-09-22T02:23:20.969Z,94.80
2022-09-22T02:25:49.528Z,94.80
2022-09-22T02:28:21.783Z,94.80
2022-09-22T02:31:17.586Z,94.90
2022-09-22T02:33:42.400Z,94.80
2022-09-22T02:36:35.338Z,94.80
2022-09-22T02:39:09.705Z,94.90
2022-09-22T02:41:47.093Z,94.90
2022-09-22T02:44:19.328Z,94.90
2022-09-22T02:46:53.426Z,95.00
2022-09-22T02:49:24.041Z,95.00
2022-09-22T02:51:53.276Z,94.90
2022-09-22T02:54:21.599Z,94.90
2022-09-22T02:56:49.436Z,94.90
2022-09-22T02:59:17.219Z,94.90
2022-09-22T03:01:44.986Z,94.90
2022-09-22T03:04:12.755Z,94.90
2022-09-22T03:06:41.795Z,95.00
2022-09-22T03:09:09.538Z,95.00
2022-09-22T03:11:37.326Z,95.00
2022-09-22T03:14:05.041Z,95.00
2022-09-22T03:16:32.756Z,95.00
2022-09-22T03:19:00.952Z,95.00
2022-09-22T03:21:28.684Z,95.00
2022-09-22T03:23:57.749Z,95.00
2022-09-22T03:26:25.515Z,95.00
2022-09-22T03:28:53.306Z,95.00
2022-09-22T03:31:21.048Z,95.00
2022-09-22T03:33:52.562Z,95.00
2022-09-22T03:36:20.641Z,95.00
2022-09-22T03:38:48.551Z,95.10
2022-09-22T03:41:17.597Z,95.10
2022-09-22T03:43:45.338Z,95.10
2022-09-22T03:46:14.162Z,95.10
2022-09-22T03:48:45.171Z,95.10
2022-09-22T03:51:13.379Z,95.10
2022-09-22T03:53:41.162Z,95.10
2022-09-22T03:56:10.742Z,95.10
2022-09-22T03:58:40.228Z,95.10
2022-09-22T04:01:11.208Z,95.40
2022-09-22T04:03:39.857Z,95.10
2022-09-22T04:06:08.010Z,95.10
2022-09-22T04:08:35.937Z,95.10
2022-09-22T04:11:03.916Z,95.10
2022-09-22T04:13:31.837Z,95.20
2022-09-22T04:16:00.868Z,95.50
2022-09-22T04:18:29.554Z,95.20
2022-09-22T04:20:58.749Z,95.60
2022-09-22T04:23:27.123Z,95.20
2022-09-22T04:25:55.117Z,95.20
2022-09-22T04:28:22.976Z,95.20
2022-09-22T04:30:50.734Z,95.20
2022-09-22T04:33:19.927Z,95.20
2022-09-22T04:35:49.497Z,95.30
2022-09-22T04:38:17.329Z,95.30
2022-09-22T04:40:45.906Z,95.30
2022-09-22T04:43:14.127Z,95.30
2022-09-22T04:45:45.014Z,95.20
2022-09-22T04:48:12.974Z,95.20
2022-09-22T04:50:47.162Z,95.20
2022-09-22T04:53:16.072Z,95.30
2022-09-22T04:55:43.780Z,95.40
2022-09-22T04:58:11.550Z,95.40
2022-09-22T05:00:39.449Z,95.40
2022-09-22T05:03:08.959Z,95.40
2022-09-22T05:05:36.984Z,95.40
2022-09-22T05:08:07.562Z,95.40
2022-09-22T05:10:35.726Z,95.40
2022-09-22T05:13:03.622Z,95.40
2022-09-22T05:15:33.009Z,95.40
2022-09-22T05:18:00.765Z,95.40
2022-09-22T05:20:28.460Z,95.40
2022-09-22T05:22:56.179Z,95.40
2022-09-22T05:25:25.379Z,95.40
2022-09-22T05:27:54.810Z,95.40
2022-09-22T05:30:24.696Z,95.40
2022-09-22T05:32:52.925Z,95.40
2022-09-22T05:35:22.787Z,95.70
2022-09-22T05:37:52.504Z,95.50
2022-09-22T05:40:23.641Z,95.50
2022-09-22T05:42:54.481Z,95.50
2022-09-22T05:45:22.544Z,95.50
2022-09-22T05:47:50.678Z,95.60
2022-09-22T05:50:20.058Z,95.60
2022-09-22T05:52:47.835Z,95.70
2022-09-22T05:55:15.696Z,95.70
2022-09-22T05:57:44.257Z,95.70
2022-09-22T06:00:14.133Z,95.70
2022-09-22T06:02:44.746Z,95.70
2022-09-22T06:05:15.410Z,95.70
2022-09-22T06:07:45.216Z,95.60
2022-09-22T06:10:12.974Z,95.70
2022-09-22T06:12:40.770Z,95.70
2022-09-22T06:15:09.069Z,95.60
2022-09-22T06:17:38.218Z,95.70
2022-09-22T06:20:08.388Z,95.70
2022-09-22T06:22:36.317Z,95.70
2022-09-22T06:25:04.268Z,95.70
2022-09-22T06:27:32.005Z,95.70
2022-09-22T06:29:59.717Z,95.70
2022-09-22T06:32:27.532Z,95.60
2022-09-22T06:34:57.533Z,95.60
2022-09-22T06:37:25.250Z,95.60
2022-09-22T06:39:52.956Z,95.60
2022-09-22T06:42:20.664Z,95.60
2022-09-22T06:44:48.837Z,95.60
2022-09-22T06:47:16.662Z,95.60
2022-09-22T06:49:44.398Z,95.60
2022-09-22T06:52:14.757Z,95.60
2022-09-22T06:54:42.666Z,95.60
2022-09-22T06:57:10.839Z,95.60
2022-09-22T06:59:39.002Z,95.60
2022-09-22T07:02:07.523Z,95.50
2022-09-22T07:04:35.508Z,95.50
2022-09-22T07:07:03.856Z,95.50
2022-09-22T07:09:33.016Z,95.50
2022-09-22T07:12:00.742Z,95.50
2022-09-22T07:14:29.552Z,95.40
2022-09-22T07:16:57.298Z,95.50
2022-09-22T07:19:25.089Z,95.40
2022-09-22T07:21:52.839Z,95.40
2022-09-22T07:24:20.550Z,95.40
2022-09-22T07:26:49.920Z,95.40
2022-09-22T07:29:17.686Z,95.40
2022-09-22T07:31:45.484Z,95.30
2022-09-22T07:34:13.990Z,95.30
2022-09-22T07:36:41.710Z,95.30
2022-09-22T07:39:11.465Z,95.30
2022-09-22T07:41:43.167Z,95.40
2022-09-22T07:44:31.759Z,95.30
2022-09-22T07:47:00.159Z,95.30
2022-09-22T07:49:28.145Z,95.30
2022-09-22T07:51:57.453Z,95.30
2022-09-22T07:54:26.288Z,95.20
2022-09-22T07:56:55.998Z,95.20
2022-09-22T07:59:25.558Z,95.20
2022-09-22T08:01:54.062Z,95.30
2022-09-22T08:04:23.668Z,95.30
2022-09-22T08:06:55.456Z,95.30
2022-09-22T08:09:24.194Z,95.30
2022-09-22T08:11:52.974Z,95.30
2022-09-22T08:14:23.721Z,95.30
2022-09-22T08:16:54.164Z,95.30
2022-09-22T08:19:24.320Z,95.30
2022-09-22T08:21:53.855Z,95.30
2022-09-22T08:24:22.655Z,95.30
2022-09-22T08:26:52.793Z,94.80
2022-09-22T08:29:21.178Z,94.80
2022-09-22T08:31:51.201Z,94.70
2022-09-22T08:34:21.710Z,94.70
2022-09-22T08:36:49.748Z,94.70
2022-09-22T08:39:18.934Z,94.70
2022-09-22T08:42:05.709Z,94.70
2022-09-22T08:44:38.550Z,94.60
2022-09-22T08:47:07.127Z,94.60
2022-09-22T08:49:58.956Z,94.60
2022-09-22T08:52:32.734Z,94.50
2022-09-22T08:55:02.716Z,94.50
2022-09-22T08:57:56.914Z,94.50
2022-09-22T09:00:26.028Z,94.40
2022-09-22T09:03:04.579Z,94.30
2022-09-22T09:06:04.383Z,94.30
2022-09-22T09:09:08.670Z,94.30
2022-09-22T09:11:52.941Z,94.30
2022-09-22T09:14:36.100Z,94.30
2022-09-22T09:17:09.328Z,94.20
2022-09-22T09:19:42.034Z,94.20
2022-09-22T09:22:18.858Z,94.10
2022-09-22T09:27:42.149Z,94.00
2022-09-22T09:30:21.909Z,93.90
2022-09-22T09:32:53.561Z,93.90
2022-09-22T09:35:26.712Z,93.80
2022-09-22T09:37:58.941Z,93.70
2022-09-22T09:40:27.490Z,93.70
2022-09-22T09:43:03.275Z,93.60
2022-09-22T09:45:38.530Z,93.60
2022-09-22T09:48:20.818Z,93.60
2022-09-22T09:50:48.598Z,93.50
2022-09-22T09:53:30.962Z,93.50
2022-09-22T09:55:58.850Z,93.40
2022-09-22T09:58:44.344Z,93.40
2022-09-22T10:01:15.082Z,93.30
2022-09-22T10:03:46.719Z,93.20
2022-09-22T10:06:16.004Z,93.10
2022-09-22T10:08:46.669Z,93.10
2022-09-22T10:11:15.864Z,93.00
2022-09-22T10:13:44.865Z,92.90
2022-09-22T10:16:33.336Z,92.90
2022-09-22T10:19:19.110Z,92.80
2022-09-22T10:21:46.848Z,92.80
2022-09-22T10:24:31.357Z,92.80
2022-09-22T10:27:02.471Z,92.70
2022-09-22T10:29:33.070Z,92.70
2022-09-22T10:32:15.174Z,92.70
2022-09-22T10:37:15.391Z,92.60
2022-09-22T10:39:49.025Z,92.60
2022-09-22T10:42:24.227Z,92.50
2022-09-22T10:44:52.890Z,92.40
2022-09-22T10:47:32.286Z,92.40
2022-09-22T10:50:24.918Z,92.40
2022-09-22T10:52:57.609Z,92.30
2022-09-22T10:55:31.059Z,92.20
2022-09-22T10:58:33.923Z,92.20
2022-09-22T11:01:14.723Z,92.10
2022-09-22T11:04:20.583Z,92.00
2022-09-22T11:07:23.858Z,91.90
2022-09-22T11:10:16.506Z,91.90
2022-09-22T11:12:53.709Z,91.80
2022-09-22T11:15:34.937Z,91.70
2022-09-22T11:18:37.647Z,91.50
2022-09-22T11:21:18.851Z,91.60
2022-09-22T11:24:02.221Z,91.60
2022-09-22T11:26:47.892Z,91.60
2022-09-22T11:29:45.999Z,91.60
2022-09-22T11:32:34.082Z,91.50
2022-09-22T11:35:24.786Z,91.40
2022-09-22T11:38:05.499Z,91.20
2022-09-22T11:40:45.887Z,91.20
2022-09-22T11:43:30.545Z,91.10
2022-09-22T11:46:07.894Z,91.10
2022-09-22T11:48:51.428Z,91.10
2022-09-22T11:51:35.441Z,91.00
2022-09-22T11:54:27.022Z,91.00
2022-09-22T11:57:00.200Z,90.90
2022-09-22T11:59:38.185Z,90.90
2022-09-22T12:02:17.414Z,90.90
2022-09-22T12:04:50.036Z,90.80
2022-09-22T12:07:25.073Z,91.10
2022-09-22T12:09:56.472Z,90.70
2022-09-22T12:12:25.440Z,90.70
2022-09-22T12:14:59.848Z,90.60
2022-09-22T12:17:36.636Z,90.70
2022-09-22T12:20:20.915Z,90.50
2022-09-22T12:23:14.329Z,90.40
2022-09-22T12:25:51.540Z,90.50
2022-09-22T12:28:22.726Z,90.50
2022-09-22T12:31:05.030Z,90.20
2022-09-22T12:33:35.921Z,90.10
2022-09-22T12:36:05.006Z,90.00
2022-09-22T12:38:32.922Z,90.30
2022-09-22T12:41:04.195Z,90.30
2022-09-22T12:43:33.426Z,90.40
2022-09-22T12:46:05.765Z,90.40
2022-09-22T12:48:37.369Z,90.30
2022-09-22T12:51:30.233Z,90.30
2022-09-22T12:54:29.666Z,90.30
2022-09-22T12:56:59.679Z,90.20
2022-09-22T12:59:55.520Z,89.70
2022-09-22T13:02:31.318Z,89.40
2022-09-22T13:05:46.462Z,89.00
2022-09-22T13:08:20.035Z,88.60
2022-09-22T13:11:05.825Z,88.00
2022-09-22T13:13:41.438Z,89.00
2022-09-22T13:16:37.330Z,89.80
2022-09-22T13:19:10.770Z,89.40
2022-09-22T13:21:40.143Z,89.50
2022-09-22T13:24:19.501Z,90.10
2022-09-22T13:26:47.343Z,89.60
2022-09-22T13:29:17.188Z,89.40
2022-09-22T13:31:46.726Z,89.30
2022-09-22T13:34:28.939Z,89.60
2022-09-22T13:37:00.905Z,89.60
2022-09-22T13:39:33.985Z,89.30
2022-09-22T13:42:07.269Z,89.00
2022-09-22T13:44:39.745Z,88.70
2022-09-22T13:47:13.404Z,88.50
2022-09-22T13:49:44.119Z,88.20
2022-09-22T13:52:19.842Z,87.70
2022-09-22T13:54:50.322Z,87.50
2022-09-22T13:57:22.239Z,87.60
2022-09-22T13:59:52.062Z,87.20
2022-09-22T14:02:25.113Z,87.30
2022-09-22T14:04:59.129Z,87.30
2022-09-22T14:07:30.724Z,86.70
2022-09-22T14:10:00.132Z,86.80
2022-09-22T14:12:29.495Z,86.40
2022-09-22T14:14:57.401Z,86.40
2022-09-22T14:17:28.620Z,85.90
2022-09-22T14:19:59.707Z,84.80
2022-09-22T14:22:31.956Z,86.00
2022-09-22T14:25:01.777Z,86.10
2022-09-22T14:27:32.842Z,86.00
2022-09-22T14:30:01.255Z,85.70
2022-09-22T14:32:35.486Z,86.00
2022-09-22T14:35:06.425Z,85.70
2022-09-22T14:37:39.136Z,86.20
2022-09-22T14:40:15.275Z,85.60
2022-09-22T14:42:43.762Z,85.20
2022-09-22T14:45:21.716Z,85.20
2022-09-22T14:48:18.810Z,84.40
2022-09-22T14:50:49.300Z,85.00
2022-09-22T14:53:22.830Z,84.30
2022-09-22T14:55:52.755Z,84.30
2022-09-22T14:58:24.387Z,84.40
2022-09-22T15:01:12.258Z,84.30
2022-09-22T15:03:42.716Z,84.10
2022-09-22T15:06:12.767Z,84.30
2022-09-22T15:08:43.097Z,84.40
2022-09-22T15:11:11.392Z,84.00
2022-09-22T15:13:41.428Z,84.70
2022-09-22T15:16:36.803Z,84.40
2022-09-22T15:19:06.513Z,84.60
2022-09-22T15:21:38.128Z,84.40
2022-09-22T15:24:06.696Z,84.50
2022-09-22T15:26:34.486Z,84.40
2022-09-22T15:29:02.789Z,84.90
2022-09-22T15:31:31.180Z,85.00
2022-09-22T15:34:01.193Z,85.00
2022-09-22T15:36:32.624Z,85.00
2022-09-22T15:39:06.516Z,85.10
2022-09-22T15:41:34.700Z,85.30
2022-09-22T15:44:03.083Z,85.40
2022-09-22T15:46:34.173Z,85.50
2022-09-22T15:49:05.494Z,85.40
2022-09-22T15:51:35.462Z,85.60
2022-09-22T15:54:03.174Z,85.50
2022-09-22T15:56:31.534Z,85.50
2022-09-22T15:59:01.251Z,85.50
2022-09-22T16:01:29.774Z,85.50
2022-09-22T16:04:01.375Z,85.60
2022-09-22T16:06:29.498Z,85.80
2022-09-22T16:08:58.654Z,85.80
2022-09-22T16:11:29.438Z,85.90
2022-09-22T16:14:00.440Z,86.00
2022-09-22T16:16:29.387Z,86.10
2022-09-22T16:18:57.249Z,86.20
2022-09-22T16:21:27.199Z,86.30
2022-09-22T16:23:57.945Z,86.30
2022-09-22T16:26:31.591Z,86.30
2022-09-22T16:29:00.075Z,86.20
2022-09-22T16:31:27.892Z,86.30
2022-09-22T16:33:57.085Z,86.30
2022-09-22T16:36:26.870Z,86.40
2022-09-22T16:38:55.298Z,86.50
2022-09-22T16:41:25.096Z,86.40
2022-09-22T16:43:55.517Z,86.50
2022-09-22T16:46:29.946Z,86.50
2022-09-22T16:49:00.219Z,86.60
2022-09-22T16:51:28.939Z,86.60
2022-09-22T16:53:57.437Z,86.70
2022-09-22T16:56:27.312Z,86.70
2022-09-22T16:58:57.584Z,86.80
2022-09-22T17:01:25.966Z,86.80
2022-09-22T17:03:53.696Z,86.90
2022-09-22T17:06:25.686Z,86.90
2022-09-22T17:08:54.297Z,87.00
2022-09-22T17:11:29.333Z,86.90
2022-09-22T17:14:00.780Z,87.00
2022-09-22T17:16:30.647Z,87.00
2022-09-22T17:19:02.307Z,87.00
2022-09-22T17:21:34.270Z,87.00
2022-09-22T17:24:03.517Z,87.10
2022-09-22T17:26:33.105Z,87.20
2022-09-22T17:29:02.624Z,87.30
2022-09-22T17:31:31.842Z,87.30
2022-09-22T17:33:59.942Z,87.30
2022-09-22T17:36:29.078Z,87.30
2022-09-22T17:38:58.794Z,87.40
2022-09-22T17:41:28.045Z,87.40
2022-09-22T17:43:57.456Z,87.50
2022-09-22T17:46:28.311Z,87.50
2022-09-22T17:49:13.448Z,87.50
2022-09-22T17:52:00.574Z,87.40
2022-09-22T17:54:48.021Z,87.60
2022-09-22T17:57:17.666Z,87.60
2022-09-22T17:59:46.008Z,87.70
2022-09-22T18:02:16.478Z,87.70
2022-09-22T18:04:45.082Z,87.80
2022-09-22T18:07:17.624Z,88.00
2022-09-22T18:09:47.101Z,88.10
2022-09-22T18:12:21.387Z,88.20
2022-09-22T18:14:51.968Z,88.30
2022-09-22T18:17:23.764Z,88.30
2022-09-22T18:19:54.804Z,88.40
2022-09-22T18:22:23.920Z,88.40
2022-09-22T18:24:55.139Z,88.40
2022-09-22T18:27:23.861Z,88.70
2022-09-22T18:29:53.049Z,88.60
2022-09-22T18:32:22.109Z,88.70
2022-09-22T18:34:52.945Z,88.80
2022-09-22T18:37:21.175Z,88.90
2022-09-22T18:39:50.318Z,88.90
2022-09-22T18:42:18.945Z,88.90
2022-09-22T18:44:47.591Z,89.00
2022-09-22T18:47:17.700Z,89.10
2022-09-22T18:49:48.142Z,89.20
2022-09-22T18:52:17.958Z,89.20
2022-09-22T18:54:46.586Z,89.30
2022-09-22T18:57:14.308Z,89.30
2022-09-22T18:59:42.039Z,89.30
2022-09-22T19:02:12.118Z,89.40
2022-09-22T19:04:40.475Z,89.40
2022-09-22T19:07:27.454Z,89.30
2022-09-22T19:09:55.147Z,89.50
2022-09-22T19:12:22.921Z,89.40
2022-09-22T19:14:54.336Z,89.60
2022-09-22T19:17:24.295Z,89.60
2022-09-22T19:19:52.216Z,89.70
2022-09-22T19:22:23.158Z,89.70
2022-09-22T19:24:51.550Z,89.90
2022-09-22T19:27:20.935Z,89.90
2022-09-22T19:29:48.958Z,90.20
2022-09-22T19:32:16.681Z,89.90
2022-09-22T19:34:44.539Z,90.00
2022-09-22T19:37:12.246Z,90.00
2022-09-22T19:39:42.241Z,90.00
2022-09-22T19:42:10.062Z,90.00
2022-09-22T19:44:40.007Z,90.00
2022-09-22T19:47:07.733Z,90.10
2022-09-22T19:49:35.441Z,90.10
2022-09-22T19:52:03.599Z,90.10
2022-09-22T19:54:31.284Z,90.10
2022-09-22T19:57:00.336Z,90.10
2022-09-22T19:59:28.045Z,90.10
2022-09-22T20:01:55.833Z,90.10
2022-09-22T20:04:23.609Z,90.20
2022-09-22T20:06:51.936Z,90.20
2022-09-22T20:09:19.670Z,90.20
2022-09-22T20:11:51.826Z,90.30
2022-09-22T20:14:20.905Z,90.30
2022-09-22T20:16:49.585Z,90.30
2022-09-22T20:19:17.680Z,90.40
2022-09-22T20:21:46.486Z,90.40
2022-09-22T20:24:16.004Z,90.40
2022-09-22T20:26:44.917Z,90.40
2022-09-22T20:29:13.178Z,90.50
2022-09-22T20:31:42.919Z,90.50
2022-09-22T20:34:14.943Z,90.50
2022-09-22T20:36:43.308Z,90.50
2022-09-22T20:39:14.146Z,90.60
2022-09-22T20:41:42.086Z,90.60
2022-09-22T20:44:14.441Z,91.10
2022-09-22T20:46:44.025Z,91.10
2022-09-22T20:49:13.911Z,91.20
2022-09-22T20:51:41.824Z,91.20
2022-09-22T20:54:09.592Z,91.50
2022-09-22T20:56:40.782Z,91.20
2022-09-22T20:59:10.476Z,91.20
2022-09-22T21:01:38.250Z,91.20
2022-09-22T21:04:07.694Z,91.20
2022-09-22T21:06:35.494Z,91.30
2022-09-22T21:09:20.662Z,91.30
2022-09-22T21:11:48.376Z,91.30
2022-09-22T21:14:16.241Z,91.30
2022-09-22T21:16:43.978Z,91.30
2022-09-22T21:19:13.298Z,91.30
2022-09-22T21:21:40.990Z,91.30
2022-09-22T21:24:09.558Z,91.40
2022-09-22T21:26:37.343Z,91.40
2022-09-22T21:29:05.131Z,91.40
2022-09-22T21:31:34.701Z,91.40
2022-09-22T21:34:02.546Z,91.40
2022-09-22T21:36:31.825Z,91.40
2022-09-22T21:39:00.786Z,91.40
2022-09-22T21:41:31.139Z,91.40
2022-09-22T21:43:59.883Z,91.40
2022-09-22T21:46:29.469Z,91.40
2022-09-22T21:49:00.757Z,91.50
2022-09-22T21:51:30.057Z,91.50
2022-09-22T21:53:59.121Z,91.50
2022-09-22T21:56:26.984Z,91.80
2022-09-22T21:58:55.821Z,91.60
2022-09-22T22:01:25.509Z,91.60
2022-09-22T22:03:54.922Z,91.50
2022-09-22T22:06:26.099Z,91.50
2022-09-22T22:09:01.406Z,91.50
2022-09-22T22:11:33.579Z,91.50
2022-09-22T22:14:03.073Z,91.60
2022-09-22T22:16:32.593Z,91.60
2022-09-22T22:19:00.278Z,91.60
2022-09-22T22:21:29.679Z,91.60
2022-09-22T22:24:20.051Z,91.60
2022-09-22T22:26:51.320Z,91.60
2022-09-22T22:29:20.868Z,91.60
2022-09-22T22:31:49.866Z,91.60
2022-09-22T22:34:19.160Z,91.60
2022-09-22T22:36:47.214Z,91.60
2022-09-22T22:39:14.938Z,91.60
2022-09-22T22:41:42.693Z,91.60
2022-09-22T22:44:12.812Z,91.60
2022-09-22T22:46:40.610Z,91.70
2022-09-22T22:49:08.572Z,91.70
2022-09-22T22:51:36.654Z,91.70
2022-09-22T22:54:05.561Z,91.70
2022-09-22T22:56:34.163Z,91.70
2022-09-22T22:59:01.911Z,91.70
2022-09-22T23:01:32.430Z,91.70
2022-09-22T23:04:02.083Z,91.70
2022-09-22T23:06:31.879Z,91.70
2022-09-22T23:08:59.850Z,91.80
2022-09-22T23:11:29.771Z,91.70
2022-09-22T23:13:59.448Z,91.80
2022-09-22T23:16:29.014Z,91.80
2022-09-22T23:19:01.304Z,91.80
2022-09-22T23:21:30.597Z,91.80
2022-09-22T23:23:58.589Z,91.80
2022-09-22T23:26:27.800Z,91.80
2022-09-22T23:28:58.470Z,91.80
2022-09-22T23:31:26.933Z,91.80
2022-09-22T23:33:55.048Z,91.80
2022-09-22T23:36:25.565Z,91.80
2022-09-22T23:38:54.954Z,91.90
2022-09-22T23:41:23.277Z,91.90
2022-09-22T23:43:51.028Z,91.90
2022-09-22T23:46:19.909Z,91.90
2022-09-22T23:48:48.388Z,91.90
2022-09-22T23:51:16.166Z,91.90
2022-09-22T23:53:45.232Z,91.90
2022-09-22T23:56:13.975Z,91.90
2022-09-22T23:58:42.170Z,91.90
